createdAt,value
2022-10-21T00:01:05.381Z,36.95
2022-10-21T00:03:40.858Z,40.28
2022-10-21T00:06:10.980Z,35.75
2022-10-21T00:08:40.503Z,37.03
2022-10-21T00:11:10.924Z,37.13
2022-10-21T00:13:40.938Z,38.97
2022-10-21T00:16:11.189Z,38.20
2022-10-21T00:18:40.293Z,39.75
2022-10-21T00:21:09.813Z,37.65
2022-10-21T00:23:38.641Z,43.95
2022-10-21T00:26:07.131Z,47.20
2022-10-21T00:28:35.126Z,44.78
2022-10-21T00:31:06.954Z,44.13
2022-10-21T00:33:34.892Z,46.20
2022-10-21T00:36:03.430Z,48.70
2022-10-21T00:38:31.904Z,51.63
2022-10-21T00:41:00.231Z,45.20
2022-10-21T00:43:29.138Z,44.22
2022-10-21T00:46:00.786Z,46.35
2022-10-21T00:48:35.075Z,45.27
2022-10-21T00:51:07.620Z,45.47
2022-10-21T00:53:37.802Z,45.55
2022-10-21T00:56:15.402Z,45.67
2022-10-21T00:58:46.373Z,42.80
2022-10-21T01:01:18.046Z,44.05
2022-10-21T01:03:50.719Z,45.20
2022-10-21T01:06:23.949Z,42.78
2022-10-21T01:08:54.587Z,43.92
2022-10-21T01:11:24.849Z,42.00
2022-10-21T01:14:09.864Z,45.75
2022-10-21T01:16:47.265Z,45.85
2022-10-21T01:20:05.316Z,52.38
2022-10-21T01:22:52.901Z,46.17
2022-10-21T01:25:54.962Z,45.45
2022-10-21T01:28:32.220Z,44.08
2022-10-21T01:31:05.260Z,45.03
2022-10-21T01:33:41.842Z,43.65
2022-10-21T01:36:19.544Z,44.55
2022-10-21T01:39:02.312Z,45.50
2022-10-21T01:41:36.273Z,45.50
2022-10-21T01:44:13.810Z,47.13
2022-10-21T01:46:46.729Z,46.38
2022-10-21T01:49:20.947Z,44.47
2022-10-21T01:51:48.942Z,40.40
2022-10-21T01:54:23.733Z,39.53
2022-10-21T01:56:51.988Z,39.53
2022-10-21T01:59:21.978Z,38.90
2022-10-21T02:01:52.964Z,38.63
2022-10-21T02:04:22.722Z,38.83
2022-10-21T02:06:50.585Z,38.15
2022-10-21T02:09:18.600Z,39.08
2022-10-21T02:11:50.145Z,39.55
2022-10-21T02:14:23.321Z,48.47
2022-10-21T02:16:53.960Z,40.92
2022-10-21T02:19:22.563Z,40.50
2022-10-21T02:21:54.451Z,35.42
2022-10-21T02:24:29.131Z,37.00
2022-10-21T02:26:57.084Z,38.72
2022-10-21T02:29:30.846Z,40.15
2022-10-21T02:32:10.706Z,39.13
2022-10-21T02:34:52.360Z,39.88
2022-10-21T02:37:30.343Z,37.25
2022-10-21T02:40:06.266Z,36.33
2022-10-21T02:42:39.319Z,38.53
2022-10-21T02:45:10.106Z,41.08
2022-10-21T02:47:40.125Z,42.45
2022-10-21T02:50:09.112Z,41.55
2022-10-21T02:52:36.882Z,45.35
2022-10-21T02:55:05.365Z,43.45
2022-10-21T02:57:33.260Z,46.85
2022-10-21T03:00:01.153Z,45.40
2022-10-21T03:02:28.962Z,44.10
2022-10-21T03:04:58.494Z,47.58
2022-10-21T03:07:26.378Z,41.95
2022-10-21T03:09:54.240Z,44.67
2022-10-21T03:12:22.273Z,42.50
2022-10-21T03:14:50.268Z,41.85
2022-10-21T03:17:21.541Z,44.55
2022-10-21T03:19:52.494Z,41.58
2022-10-21T03:22:21.536Z,42.15
2022-10-21T03:24:49.429Z,39.05
2022-10-21T03:27:17.449Z,41.35
2022-10-21T03:29:45.328Z,44.85
2022-10-21T03:32:13.281Z,43.17
2022-10-21T03:34:41.298Z,45.83
2022-10-21T03:37:08.987Z,45.22
2022-10-21T03:39:38.694Z,41.75
2022-10-21T03:42:06.669Z,43.00
2022-10-21T03:44:34.692Z,43.17
2022-10-21T03:47:02.396Z,40.17
2022-10-21T03:49:30.655Z,41.25
2022-10-21T03:51:58.370Z,40.97
2022-10-21T03:54:26.481Z,39.00
2022-10-21T03:56:55.830Z,43.40
2022-10-21T03:59:23.741Z,39.88
2022-10-21T04:01:51.547Z,43.00
2022-10-21T04:04:19.622Z,41.42
2022-10-21T04:06:47.368Z,41.05
2022-10-21T04:09:15.538Z,38.22
2022-10-21T04:11:43.389Z,40.72
2022-10-21T04:14:15.270Z,39.63
2022-10-21T04:16:43.571Z,40.30
2022-10-21T04:19:17.949Z,45.90
2022-10-21T04:21:46.065Z,46.88
2022-10-21T04:24:14.488Z,45.88
2022-10-21T04:26:42.802Z,45.55
2022-10-21T04:29:12.277Z,45.70
2022-10-21T04:31:40.361Z,45.45
2022-10-21T04:34:08.252Z,44.17
2022-10-21T04:36:36.066Z,44.72
2022-10-21T04:39:04.263Z,49.05
2022-10-21T04:41:31.972Z,47.30
2022-10-21T04:44:00.045Z,63.53
2022-10-21T04:46:29.288Z,54.80
2022-10-21T04:48:57.363Z,57.25
2022-10-21T04:51:25.135Z,49.45
2022-10-21T04:53:53.305Z,43.95
2022-10-21T04:56:21.012Z,39.15
2022-10-21T04:58:48.910Z,38.20
2022-10-21T05:01:16.844Z,37.50
2022-10-21T05:03:46.226Z,36.78
2022-10-21T05:06:13.966Z,35.65
2022-10-21T05:08:42.243Z,38.83
2022-10-21T05:11:09.992Z,42.22
2022-10-21T05:13:37.881Z,45.67
2022-10-21T05:16:06.523Z,53.80
2022-10-21T05:18:34.491Z,51.55
2022-10-21T05:21:03.570Z,56.10
2022-10-21T05:23:31.807Z,59.92
2022-10-21T05:25:59.681Z,59.50
2022-10-21T05:28:27.543Z,56.00
2022-10-21T05:30:55.418Z,55.25
2022-10-21T05:33:23.401Z,52.22
2022-10-21T05:35:58.576Z,44.13
2022-10-21T05:38:28.661Z,50.03
2022-10-21T05:40:56.492Z,49.47
2022-10-21T05:43:24.749Z,49.65
2022-10-21T05:45:52.677Z,53.78
2022-10-21T05:48:20.796Z,46.17
2022-10-21T05:50:48.920Z,44.95
2022-10-21T05:53:17.157Z,47.55
2022-10-21T05:55:46.169Z,49.17
2022-10-21T05:58:14.177Z,46.90
2022-10-21T06:00:42.217Z,45.33
2022-10-21T06:03:10.146Z,50.85
2022-10-21T06:05:37.870Z,49.55
2022-10-21T06:08:06.270Z,49.65
2022-10-21T06:10:33.985Z,43.63
2022-10-21T06:13:03.179Z,37.88
2022-10-21T06:15:31.122Z,38.08
2022-10-21T06:17:59.104Z,39.17
2022-10-21T06:20:26.844Z,38.28
2022-10-21T06:22:54.894Z,41.10
2022-10-21T06:25:23.758Z,40.25
2022-10-21T06:27:52.891Z,40.35
2022-10-21T06:30:23.055Z,41.47
2022-10-21T06:32:51.398Z,39.10
2022-10-21T06:35:19.155Z,39.97
2022-10-21T06:37:47.196Z,39.25
2022-10-21T06:40:15.042Z,39.40
2022-10-21T06:42:42.960Z,38.65
2022-10-21T06:45:11.670Z,41.03
2022-10-21T06:47:41.325Z,42.67
2022-10-21T06:50:09.590Z,42.58
2022-10-21T06:52:37.573Z,42.10
2022-10-21T06:55:06.000Z,40.97
2022-10-21T06:57:34.213Z,41.08
2022-10-21T07:00:02.021Z,41.95
2022-10-21T07:02:30.437Z,40.35
2022-10-21T07:04:59.495Z,40.60
2022-10-21T07:07:27.565Z,47.55
2022-10-21T07:09:57.681Z,43.83
2022-10-21T07:12:26.634Z,43.05
2022-10-21T07:14:55.150Z,43.28
2022-10-21T07:17:23.405Z,46.25
2022-10-21T07:19:51.508Z,42.95
2022-10-21T07:22:20.834Z,40.40
2022-10-21T07:24:48.700Z,39.88
2022-10-21T07:27:16.630Z,38.42
2022-10-21T07:29:44.589Z,38.55
2022-10-21T07:32:12.483Z,41.30
2022-10-21T07:34:40.194Z,35.70
2022-10-21T07:37:08.332Z,36.55
2022-10-21T07:39:37.379Z,38.28
2022-10-21T07:42:05.825Z,36.42
2022-10-21T07:44:33.696Z,37.55
2022-10-21T07:47:01.808Z,36.10
2022-10-21T07:49:29.533Z,35.83
2022-10-21T07:51:57.637Z,33.00
2022-10-21T07:54:25.389Z,34.95
2022-10-21T07:56:54.672Z,37.50
2022-10-21T07:59:23.359Z,38.72
2022-10-21T08:01:52.721Z,39.05
2022-10-21T08:04:24.568Z,38.13
2022-10-21T08:06:53.058Z,36.28
2022-10-21T08:09:20.748Z,30.55
2022-10-21T08:11:49.097Z,31.50
2022-10-21T08:14:18.300Z,32.05
2022-10-21T08:16:46.216Z,35.00
2022-10-21T08:19:20.079Z,31.70
2022-10-21T08:21:48.631Z,31.85
2022-10-21T08:24:16.957Z,31.40
2022-10-21T08:26:45.041Z,33.40
2022-10-21T08:29:12.961Z,31.92
2022-10-21T08:31:42.228Z,33.05
2022-10-21T08:34:10.321Z,32.50
2022-10-21T08:36:39.381Z,31.85
2022-10-21T08:39:07.546Z,31.25
2022-10-21T08:42:05.922Z,33.15
2022-10-21T08:44:40.907Z,32.97
2022-10-21T08:47:17.627Z,32.13
2022-10-21T08:49:54.037Z,31.52
2022-10-21T08:52:24.720Z,31.15
2022-10-21T08:54:57.399Z,33.72
2022-10-21T08:57:25.532Z,29.30
2022-10-21T08:59:53.824Z,32.38
2022-10-21T09:02:42.120Z,31.25
2022-10-21T09:08:04.831Z,28.38
2022-10-21T09:10:43.033Z,30.08
2022-10-21T09:13:17.361Z,28.95
2022-10-21T09:15:54.530Z,29.67
2022-10-21T09:18:35.761Z,28.95
2022-10-21T09:21:15.074Z,29.90
2022-10-21T09:24:01.497Z,31.20
2022-10-21T09:26:41.348Z,31.48
2022-10-21T09:29:21.462Z,32.15
2022-10-21T09:31:54.501Z,29.80
2022-10-21T09:34:38.376Z,25.00
2022-10-21T09:37:09.266Z,23.67
2022-10-21T09:39:43.498Z,23.52
2022-10-21T09:42:35.404Z,25.92
2022-10-21T09:45:01.769Z,25.52
2022-10-21T09:47:30.253Z,28.23
2022-10-21T09:50:07.234Z,26.05
2022-10-21T09:52:38.910Z,24.70
2022-10-21T09:55:12.910Z,25.30
2022-10-21T09:57:49.314Z,24.17
2022-10-21T10:00:17.458Z,23.15
2022-10-21T10:02:47.156Z,24.98
2022-10-21T10:05:36.306Z,23.48
2022-10-21T10:08:28.084Z,20.42
2022-10-21T10:11:04.141Z,21.00
2022-10-21T10:13:32.525Z,20.17
2022-10-21T10:16:23.402Z,16.23
2022-10-21T10:18:53.086Z,16.17
2022-10-21T10:21:23.912Z,16.58
2022-10-21T10:23:54.273Z,12.63
2022-10-21T10:26:27.475Z,13.05
2022-10-21T10:28:59.438Z,12.07
2022-10-21T10:34:04.109Z,13.48
2022-10-21T10:36:36.907Z,14.30
2022-10-21T10:39:08.038Z,14.40
2022-10-21T10:41:40.198Z,14.20
2022-10-21T10:44:19.665Z,14.85
2022-10-21T10:46:55.431Z,15.55
2022-10-21T10:49:24.582Z,16.30
2022-10-21T10:52:07.970Z,15.70
2022-10-21T10:54:36.990Z,14.00
2022-10-21T10:57:11.596Z,13.82
2022-10-21T10:59:43.214Z,15.77
2022-10-21T11:02:35.796Z,15.35
2022-10-21T11:05:24.700Z,15.75
2022-10-21T11:07:56.053Z,21.58
2022-10-21T11:10:35.957Z,23.95
2022-10-21T11:13:06.577Z,22.05
2022-10-21T11:15:50.865Z,23.70
2022-10-21T11:18:25.144Z,25.38
2022-10-21T11:21:02.340Z,25.15
2022-10-21T11:24:02.921Z,25.80
2022-10-21T11:26:37.349Z,24.20
2022-10-21T11:29:17.022Z,24.08
2022-10-21T11:32:10.803Z,23.17
2022-10-21T11:34:51.577Z,22.95
2022-10-21T11:37:28.678Z,23.63
2022-10-21T11:40:04.646Z,23.00
2022-10-21T11:42:37.628Z,24.45
2022-10-21T11:45:31.327Z,25.80
2022-10-21T11:48:05.322Z,20.67
2022-10-21T11:50:40.725Z,21.10
2022-10-21T11:53:26.176Z,22.45
2022-10-21T11:56:07.742Z,20.42
2022-10-21T11:58:51.097Z,21.65
2022-10-21T12:01:29.884Z,20.63
2022-10-21T12:04:24.421Z,23.60
2022-10-21T12:07:26.741Z,23.90
2022-10-21T12:09:59.502Z,25.42
2022-10-21T12:12:32.450Z,26.75
2022-10-21T12:15:02.679Z,24.85
2022-10-21T12:20:07.277Z,25.30
2022-10-21T12:22:36.155Z,25.35
2022-10-21T12:25:18.731Z,24.48
2022-10-21T12:27:54.624Z,24.48
2022-10-21T12:30:27.386Z,24.85
2022-10-21T12:33:13.733Z,24.38
2022-10-21T12:35:49.974Z,26.08
2022-10-21T12:38:24.239Z,23.75
2022-10-21T12:41:13.017Z,25.27
2022-10-21T12:43:52.722Z,25.25
2022-10-21T12:46:25.958Z,26.30
2022-10-21T12:48:54.464Z,25.10
2022-10-21T12:51:25.313Z,27.17
2022-10-21T12:53:57.493Z,26.60
2022-10-21T12:56:29.440Z,26.88
2022-10-21T13:01:40.817Z,26.05
2022-10-21T13:04:45.293Z,26.10
2022-10-21T13:07:38.184Z,26.77
2022-10-21T13:10:34.012Z,27.83
2022-10-21T13:13:36.394Z,27.90
2022-10-21T13:16:30.693Z,27.98
2022-10-21T13:19:00.129Z,28.17
2022-10-21T13:21:36.491Z,27.23
2022-10-21T13:24:15.023Z,25.88
2022-10-21T13:26:49.641Z,25.30
2022-10-21T13:29:34.045Z,27.98
2022-10-21T13:32:29.357Z,26.70
2022-10-21T13:35:04.344Z,25.23
2022-10-21T13:37:36.020Z,25.00
2022-10-21T13:40:07.318Z,25.77
2022-10-21T13:42:39.613Z,22.53
2022-10-21T13:45:22.605Z,24.77
2022-10-21T13:48:02.417Z,22.80
2022-10-21T13:50:33.667Z,23.27
2022-10-21T13:53:06.314Z,22.83
2022-10-21T13:55:34.278Z,21.92
2022-10-21T13:58:02.151Z,20.83
2022-10-21T14:00:32.350Z,20.60
2022-10-21T14:03:04.989Z,23.00
2022-10-21T14:05:37.625Z,21.08
2022-10-21T14:08:14.831Z,19.83
2022-10-21T14:10:46.157Z,20.05
2022-10-21T14:13:16.388Z,18.30
2022-10-21T14:15:46.173Z,20.42
2022-10-21T14:18:28.749Z,18.38
2022-10-21T14:20:59.646Z,20.33
2022-10-21T14:23:29.293Z,19.58
2022-10-21T14:26:05.788Z,18.85
2022-10-21T14:28:34.659Z,19.15
2022-10-21T14:31:03.307Z,18.60
2022-10-21T14:33:32.678Z,19.63
2022-10-21T14:36:10.098Z,19.48
2022-10-21T14:38:44.074Z,18.60
2022-10-21T14:41:18.990Z,17.48
2022-10-21T14:43:49.225Z,18.33
2022-10-21T14:46:18.020Z,20.02
2022-10-21T14:48:51.877Z,18.58
2022-10-21T14:51:22.547Z,20.95
2022-10-21T14:53:55.786Z,19.58
2022-10-21T14:56:30.553Z,20.50
2022-10-21T14:59:00.874Z,19.85
2022-10-21T15:01:28.885Z,20.30
2022-10-21T15:04:00.447Z,19.02
2022-10-21T15:06:30.564Z,20.83
2022-10-21T15:09:07.699Z,18.80
2022-10-21T15:11:39.590Z,19.70
2022-10-21T15:14:30.887Z,20.45
2022-10-21T15:17:01.895Z,19.48
2022-10-21T15:19:43.113Z,20.40
2022-10-21T15:22:23.972Z,19.27
2022-10-21T15:24:53.654Z,19.02
2022-10-21T15:27:35.114Z,18.90
2022-10-21T15:30:07.301Z,21.50
2022-10-21T15:32:35.001Z,23.65
2022-10-21T15:35:13.458Z,23.15
2022-10-21T15:37:41.684Z,25.65
2022-10-21T15:40:11.109Z,27.80
2022-10-21T15:42:38.817Z,29.08
2022-10-21T15:45:14.997Z,33.60
2022-10-21T15:47:42.853Z,36.00
2022-10-21T15:50:15.990Z,35.35
2022-10-21T15:52:44.513Z,38.40
2022-10-21T15:55:12.903Z,38.38
2022-10-21T15:57:41.943Z,39.10
2022-10-21T16:00:17.962Z,40.80
2022-10-21T16:02:46.981Z,39.63
2022-10-21T16:05:17.149Z,38.53
2022-10-21T16:07:45.080Z,37.25
2022-10-21T16:10:21.429Z,36.50
2022-10-21T16:12:49.385Z,30.75
2022-10-21T16:15:19.177Z,38.47
2022-10-21T16:17:49.782Z,43.25
2022-10-21T16:20:21.899Z,43.13
2022-10-21T16:22:49.882Z,46.50
2022-10-21T16:25:18.737Z,49.42
2022-10-21T16:28:02.471Z,57.60
2022-10-21T16:30:35.212Z,47.88
2022-10-21T16:33:03.077Z,59.78
2022-10-21T16:35:32.537Z,89.57
2022-10-21T16:38:00.293Z,113.18
2022-10-21T16:40:31.582Z,90.03
2022-10-21T16:42:59.753Z,71.97
2022-10-21T16:45:29.929Z,50.55
2022-10-21T16:48:00.352Z,53.80
2022-10-21T16:50:36.835Z,45.65
2022-10-21T16:53:05.117Z,48.75
2022-10-21T16:55:33.336Z,52.53
2022-10-21T16:58:01.017Z,47.58
2022-10-21T17:00:28.919Z,49.22
2022-10-21T17:02:58.823Z,48.67
2022-10-21T17:05:27.089Z,32.33
2022-10-21T17:07:57.016Z,26.02
2022-10-21T17:10:25.251Z,40.63
2022-10-21T17:12:58.654Z,43.22
2022-10-21T17:15:27.624Z,44.85
2022-10-21T17:17:55.612Z,48.47
2022-10-21T17:20:23.534Z,31.02
2022-10-21T17:22:51.493Z,30.45
2022-10-21T17:25:22.734Z,36.00
2022-10-21T17:27:50.807Z,41.58
2022-10-21T17:30:19.618Z,46.88
2022-10-21T17:32:47.762Z,43.10
2022-10-21T17:35:19.325Z,50.50
2022-10-21T17:37:47.682Z,45.97
2022-10-21T17:40:17.692Z,53.05
2022-10-21T17:42:47.194Z,51.22
2022-10-21T17:45:17.117Z,53.30
2022-10-21T17:47:45.430Z,60.97
2022-10-21T17:50:14.718Z,53.47
2022-10-21T17:52:43.477Z,53.65
2022-10-21T17:55:11.632Z,62.38
2022-10-21T17:57:39.478Z,66.28
2022-10-21T18:00:10.038Z,65.00
2022-10-21T18:02:38.447Z,50.53
2022-10-21T18:05:08.721Z,52.85
2022-10-21T18:07:36.740Z,70.93
2022-10-21T18:10:06.153Z,78.75
2022-10-21T18:12:34.438Z,79.75
2022-10-21T18:15:02.637Z,63.00
2022-10-21T18:17:33.272Z,54.63
2022-10-21T18:20:01.139Z,53.63
2022-10-21T18:22:29.592Z,47.67
2022-10-21T18:24:57.471Z,46.67
2022-10-21T18:27:25.214Z,48.92
2022-10-21T18:29:53.269Z,47.38
2022-10-21T18:32:21.024Z,48.53
2022-10-21T18:34:50.940Z,66.25
2022-10-21T18:37:20.170Z,42.75
2022-10-21T18:39:48.083Z,42.28
2022-10-21T18:42:16.766Z,44.90
2022-10-21T18:44:45.666Z,43.38
2022-10-21T18:47:13.790Z,46.97
2022-10-21T18:49:41.660Z,47.60
2022-10-21T18:52:13.175Z,43.83
2022-10-21T18:54:41.240Z,44.60
2022-10-21T18:57:12.722Z,45.05
2022-10-21T18:59:40.970Z,45.97
2022-10-21T19:02:11.629Z,45.85
2022-10-21T19:04:42.242Z,51.90
2022-10-21T19:07:11.394Z,54.83
2022-10-21T19:09:39.520Z,57.05
2022-10-21T19:12:13.521Z,51.95
2022-10-21T19:14:42.869Z,53.67
2022-10-21T19:17:11.182Z,48.92
2022-10-21T19:19:39.637Z,46.08
2022-10-21T19:22:07.425Z,46.75
2022-10-21T19:24:37.000Z,44.55
2022-10-21T19:27:04.977Z,45.00
2022-10-21T19:29:32.846Z,45.35
2022-10-21T19:32:00.765Z,46.30
2022-10-21T19:34:28.647Z,43.92
2022-10-21T19:36:56.400Z,44.60
2022-10-21T19:39:24.613Z,45.20
2022-10-21T19:41:53.814Z,45.13
2022-10-21T19:44:22.115Z,43.15
2022-10-21T19:46:50.368Z,44.08
2022-10-21T19:49:18.238Z,42.67
2022-10-21T19:51:45.977Z,43.72
2022-10-21T19:54:15.272Z,45.60
2022-10-21T19:56:43.165Z,38.38
2022-10-21T19:59:12.715Z,40.53
2022-10-21T20:01:40.980Z,41.63
2022-10-21T20:04:08.993Z,37.67
2022-10-21T20:06:38.215Z,36.90
2022-10-21T20:09:08.158Z,37.30
2022-10-21T20:11:36.315Z,35.13
2022-10-21T20:14:04.366Z,36.33
2022-10-21T20:16:35.881Z,34.80
2022-10-21T20:19:05.153Z,38.80
2022-10-21T20:21:34.337Z,35.33
2022-10-21T20:24:02.447Z,33.17
2022-10-21T20:26:30.668Z,30.15
2022-10-21T20:29:00.499Z,33.75
2022-10-21T20:31:28.824Z,33.03
2022-10-21T20:33:58.298Z,32.05
2022-10-21T20:36:28.312Z,33.60
2022-10-21T20:38:58.199Z,32.88
2022-10-21T20:41:28.178Z,28.92
2022-10-21T20:43:56.219Z,26.83
2022-10-21T20:46:25.962Z,28.58
2022-10-21T20:48:55.304Z,27.50
2022-10-21T20:51:26.562Z,27.80
2022-10-21T20:53:55.846Z,27.95
2022-10-21T20:56:26.342Z,28.77
2022-10-21T20:58:54.708Z,31.38
2022-10-21T21:01:25.277Z,30.38
2022-10-21T21:03:54.809Z,29.63
2022-10-21T21:06:24.290Z,28.20
2022-10-21T21:09:22.112Z,28.42
2022-10-21T21:11:41.128Z,23.92
2022-10-21T21:14:09.063Z,28.08
2022-10-21T21:16:37.037Z,26.63
2022-10-21T21:19:07.657Z,26.48
2022-10-21T21:21:37.900Z,25.02
2022-10-21T21:24:06.705Z,25.80
2022-10-21T21:26:36.691Z,22.77
2022-10-21T21:29:07.072Z,23.70
2022-10-21T21:31:36.779Z,24.65
2022-10-21T21:34:05.891Z,25.38
2022-10-21T21:36:33.745Z,25.33
2022-10-21T21:39:03.570Z,26.40
2022-10-21T21:41:31.377Z,24.90
2022-10-21T21:43:59.277Z,27.15
2022-10-21T21:46:27.542Z,27.00
2022-10-21T21:49:00.966Z,28.13
2022-10-21T21:51:31.213Z,26.63
2022-10-21T21:53:59.871Z,24.23
2022-10-21T21:56:29.030Z,23.35
2022-10-21T21:58:58.144Z,23.83
2022-10-21T22:01:28.716Z,23.50
2022-10-21T22:03:58.031Z,22.17
2022-10-21T22:06:28.525Z,21.00
2022-10-21T22:08:56.818Z,20.88
2022-10-21T22:11:26.878Z,20.05
2022-10-21T22:13:56.448Z,21.38
2022-10-21T22:16:27.383Z,21.02
2022-10-21T22:18:55.710Z,28.45
2022-10-21T22:21:23.716Z,30.63
2022-10-21T22:23:52.737Z,32.55
2022-10-21T22:26:23.099Z,35.15
2022-10-21T22:28:51.150Z,39.45
2022-10-21T22:31:25.795Z,37.25
2022-10-21T22:33:57.578Z,38.53
2022-10-21T22:36:25.554Z,35.38
2022-10-21T22:38:53.609Z,31.25
2022-10-21T22:41:21.930Z,32.78
2022-10-21T22:43:49.800Z,30.35
2022-10-21T22:49:07.164Z,29.15
2022-10-21T22:51:35.273Z,29.88
2022-10-21T22:54:03.621Z,28.90
2022-10-21T22:56:32.061Z,29.55
2022-10-21T22:59:00.348Z,30.73
2022-10-21T23:01:30.339Z,32.67
2022-10-21T23:04:02.475Z,32.50
2022-10-21T23:06:31.971Z,33.67
2022-10-21T23:09:01.030Z,31.88
2022-10-21T23:11:29.545Z,32.28
2022-10-21T23:14:03.263Z,32.15
2022-10-21T23:16:35.971Z,31.85
2022-10-21T23:19:04.194Z,32.25
2022-10-21T23:21:33.492Z,32.70
2022-10-21T23:24:01.703Z,32.30
2022-10-21T23:26:29.462Z,32.70
2022-10-21T23:28:57.334Z,33.25
2022-10-21T23:31:25.222Z,32.97
2022-10-21T23:33:53.141Z,32.70
2022-10-21T23:36:20.839Z,32.72
2022-10-21T23:38:50.259Z,32.08
2022-10-21T23:41:17.953Z,32.47
2022-10-21T23:43:45.816Z,31.40
2022-10-21T23:46:13.918Z,33.63
2022-10-21T23:48:41.834Z,32.72
2022-10-21T23:51:09.534Z,33.50
2022-10-21T23:53:37.938Z,33.03
2022-10-21T23:56:07.969Z,34.40
2022-10-21T23:58:36.335Z,35.45
